Time;durP1;ratioP1;P1;durP2;ratioP2;P2;SDS_P1;SDS_P2;PMS_P1;PMS_P2;Temp;Humidity;BMP_temperature;BMP_pressure;BME280_temperature;BME280_humidity;BME280_pressure;Samples;Min_cycle;Max_cycle;Signal;HPM_P1;HPM_P2
2022/02/12 00:01:52;;;;;;;7.22;2.95;;;30.50;20.50;;;;;;5068567;28;20069;-59
2022/02/12 00:04:18;;;;;;;4.95;2.75;;;30.40;21.00;;;;;;5051638;28;20075;-60
2022/02/12 00:06:44;;;;;;;6.35;2.38;;;30.40;21.00;;;;;;5068196;28;20133;-60
2022/02/12 00:09:11;;;;;;;6.30;2.47;;;30.30;20.50;;;;;;5051787;28;20209;-60
2022/02/12 00:11:37;;;;;;;5.05;2.35;;;30.20;20.50;;;;;;5069796;28;20171;-59
2022/02/12 00:14:04;;;;;;;6.68;2.60;;;30.20;20.60;;;;;;5068985;28;20072;-61
2022/02/12 00:16:30;;;;;;;9.65;2.47;;;30.10;21.10;;;;;;5068549;28;20083;-61
2022/02/12 00:18:57;;;;;;;9.63;2.85;;;30.00;20.60;;;;;;5050528;28;20100;-62
2022/02/12 00:21:24;;;;;;;5.82;2.45;;;30.00;21.10;;;;;;5070118;28;20072;-60
2022/02/12 00:23:53;;;;;;;8.57;2.40;;;29.90;20.80;;;;;;5066953;28;20076;-61
2022/02/12 00:26:22;;;;;;;8.25;2.58;;;29.80;21.10;;;;;;5067165;28;20558;-61
2022/02/12 00:28:50;;;;;;;11.38;2.50;;;29.70;20.80;;;;;;5068910;28;20075;-61
2022/02/12 00:31:16;;;;;;;11.35;2.30;;;29.70;21.00;;;;;;5069440;28;20149;-63
2022/02/12 00:33:42;;;;;;;9.48;2.35;;;29.60;21.10;;;;;;5069212;28;20068;-63
2022/02/12 00:36:09;;;;;;;7.55;2.65;;;29.50;21.50;;;;;;5067117;28;20077;-62
2022/02/12 00:38:35;;;;;;;8.70;2.45;;;29.40;21.30;;;;;;5068202;28;20075;-62
2022/02/12 00:41:01;;;;;;;6.50;2.50;;;29.30;21.40;;;;;;5068438;28;20083;-64
2022/02/12 00:43:28;;;;;;;10.13;2.40;;;29.20;21.60;;;;;;5068652;28;20111;-65
2022/02/12 00:45:54;;;;;;;5.20;2.47;;;29.10;21.90;;;;;;5064382;28;20080;-62
2022/02/12 00:48:21;;;;;;;12.35;2.78;;;29.00;21.90;;;;;;5067146;28;20124;-64
2022/02/12 00:50:47;;;;;;;22.50;3.78;;;29.00;21.50;;;;;;5066736;28;20068;-62
2022/02/12 00:53:14;;;;;;;9.13;2.40;;;29.00;22.20;;;;;;5068018;28;20161;-63
2022/02/12 00:55:40;;;;;;;5.18;2.50;;;29.00;23.10;;;;;;5067417;28;20423;-63
2022/02/12 00:58:07;;;;;;;21.33;2.85;;;28.70;22.50;;;;;;5068499;28;20090;-63
2022/02/12 01:00:33;;;;;;;14.23;2.72;;;28.50;23.70;;;;;;5050097;28;20077;-65
2022/02/12 01:03:02;;;;;;;19.70;2.88;;;28.30;23.70;;;;;;5067804;28;20072;-62
2022/02/12 01:05:28;;;;;;;12.00;2.58;;;28.10;24.70;;;;;;5068454;28;20081;-64
2022/02/12 01:07:55;;;;;;;18.10;3.15;;;27.90;24.70;;;;;;5068236;28;20142;-62
2022/02/12 01:10:21;;;;;;;15.10;3.80;;;27.70;24.80;;;;;;5067710;28;20088;-61
2022/02/12 01:12:48;;;;;;;12.43;2.70;;;27.50;25.20;;;;;;5068185;28;20478;-64
2022/02/12 01:15:14;;;;;;;22.77;3.33;;;27.30;25.70;;;;;;5067995;28;20152;-60
2022/02/12 01:17:41;;;;;;;18.50;3.63;;;27.10;26.00;;;;;;5065900;28;20107;-62
2022/02/12 01:20:08;;;;;;;23.55;3.50;;;27.00;25.90;;;;;;5067606;28;20093;-63
2022/02/12 01:22:34;;;;;;;19.23;4.15;;;26.70;26.40;;;;;;5066594;28;20088;-60
2022/02/12 01:25:01;;;;;;;26.92;3.65;;;26.60;26.90;;;;;;5066393;28;20097;-60
2022/02/12 01:27:27;;;;;;;31.95;4.13;;;26.40;27.30;;;;;;5066916;28;20551;-60
2022/02/12 01:29:53;;;;;;;38.55;4.22;;;26.20;27.70;;;;;;5066079;28;20176;-61
2022/02/12 01:32:20;;;;;;;50.45;5.15;;;25.90;27.80;;;;;;5066813;28;20081;-60
2022/02/12 01:34:47;;;;;;;75.78;6.60;;;25.70;28.10;;;;;;5049782;28;20089;-60
2022/02/12 01:37:13;;;;;;;50.35;5.47;;;25.50;28.40;;;;;;5050850;28;20085;-61
2022/02/12 01:39:40;;;;;;;30.45;4.53;;;25.40;28.60;;;;;;5069618;28;20081;-62
2022/02/12 01:42:06;;;;;;;34.28;5.05;;;25.30;28.70;;;;;;5071158;28;20084;-58
2022/02/12 01:44:35;;;;;;;25.83;5.05;;;25.10;28.90;;;;;;5070440;28;20074;-66
2022/02/12 01:47:02;;;;;;;42.63;5.53;;;25.00;29.90;;;;;;5070982;28;20085;-61
2022/02/12 01:49:29;;;;;;;33.78;5.03;;;24.90;30.00;;;;;;5071121;28;20073;-64
2022/02/12 01:51:57;;;;;;;46.80;5.93;;;24.70;30.10;;;;;;5070438;28;20080;-62
2022/02/12 01:54:25;;;;;;;38.72;5.88;;;24.60;30.60;;;;;;5072169;28;20069;-59
2022/02/12 01:56:52;;;;;;;37.50;6.30;;;24.40;30.60;;;;;;5070883;28;20127;-59
2022/02/12 01:59:22;;;;;;;40.25;5.75;;;24.30;30.90;;;;;;5053904;28;20536;-60
2022/02/12 02:01:49;;;;;;;40.38;6.03;;;24.20;31.10;;;;;;5071124;28;20077;-60
2022/02/12 02:04:16;;;;;;;32.75;5.13;;;24.10;31.30;;;;;;5069801;28;20523;-61
2022/02/12 02:06:43;;;;;;;27.92;5.07;;;23.90;31.30;;;;;;5070022;28;21231;-61
2022/02/12 02:09:10;;;;;;;45.42;6.22;;;23.80;31.50;;;;;;5053478;28;20069;-59
2022/02/12 02:11:37;;;;;;;36.53;6.30;;;23.70;31.40;;;;;;5069518;28;20089;-59
2022/02/12 02:14:04;;;;;;;52.92;7.05;;;23.60;31.80;;;;;;5071210;28;20439;-58
2022/02/12 02:16:31;;;;;;;30.70;6.72;;;23.50;32.10;;;;;;5069978;28;20073;-60
2022/02/12 02:18:57;;;;;;;44.67;7.18;;;23.40;32.80;;;;;;5070532;28;20244;-61
2022/02/12 02:21:24;;;;;;;36.88;7.15;;;23.30;33.10;;;;;;5068746;28;20165;-59
2022/02/12 02:23:51;;;;;;;42.85;7.53;;;23.20;33.10;;;;;;5053444;28;20073;-63
2022/02/12 02:26:17;;;;;;;51.35;7.45;;;23.10;33.40;;;;;;5052653;28;20542;-59
2022/02/12 02:28:44;;;;;;;40.58;6.75;;;23.00;33.80;;;;;;5072579;28;20096;-59
2022/02/12 02:31:10;;;;;;;49.58;7.65;;;22.90;33.90;;;;;;5053186;28;20421;-61
2022/02/12 02:33:37;;;;;;;56.05;8.32;;;22.80;34.10;;;;;;5070388;28;20081;-60
2022/02/12 02:36:03;;;;;;;47.58;7.88;;;22.70;34.50;;;;;;5054465;28;20080;-62
2022/02/12 02:38:31;;;;;;;60.53;8.43;;;22.60;34.40;;;;;;5069738;28;20073;-61
2022/02/12 02:40:58;;;;;;;64.60;21.08;;;22.50;34.60;;;;;;5069177;28;20191;-59
2022/02/12 02:43:25;;;;;;;71.55;24.00;;;22.50;34.90;;;;;;5069321;28;20069;-63
2022/02/12 02:45:53;;;;;;;61.63;13.30;;;22.40;35.10;;;;;;5052871;28;20604;-61
2022/02/12 02:48:19;;;;;;;66.65;11.40;;;22.30;34.60;;;;;;5069761;28;20617;-62
2022/02/12 02:56:17;;;;;;;63.80;10.27;;;22.20;35.60;;;;;;5071474;28;20088;-60
2022/02/12 02:58:49;;;;;;;56.60;10.07;;;22.10;35.60;;;;;;5070494;28;20139;-64
2022/02/12 03:01:18;;;;;;;52.50;9.55;;;22.00;35.90;;;;;;5068994;28;20519;-59
2022/02/12 03:03:47;;;;;;;54.88;9.75;;;22.00;35.90;;;;;;5068700;28;20084;-61
2022/02/12 03:06:15;;;;;;;67.03;10.30;;;21.90;36.20;;;;;;5069844;28;20596;-60
2022/02/12 03:08:42;;;;;;;69.60;11.27;;;21.80;36.10;;;;;;5053011;28;20100;-58
2022/02/12 03:11:10;;;;;;;72.05;11.73;;;21.80;35.30;;;;;;5069943;28;20222;-61
2022/02/12 03:13:38;;;;;;;50.83;9.80;;;21.70;35.70;;;;;;5051530;28;20077;-62
2022/02/12 03:16:06;;;;;;;66.32;9.95;;;21.70;36.10;;;;;;5071110;28;20223;-61
2022/02/12 03:18:32;;;;;;;84.63;12.38;;;21.70;36.40;;;;;;5051002;28;20125;-59
2022/02/12 03:20:58;;;;;;;80.97;12.73;;;21.60;36.30;;;;;;5069153;28;20089;-60
2022/02/12 03:23:25;;;;;;;85.72;13.77;;;21.50;36.50;;;;;;5069492;28;20077;-62
2022/02/12 03:25:51;;;;;;;91.35;15.15;;;21.50;36.80;;;;;;5069284;28;20092;-60
2022/02/12 03:28:19;;;;;;;101.43;14.68;;;21.40;37.00;;;;;;5053052;28;20090;-63
2022/02/12 03:30:46;;;;;;;100.35;15.38;;;21.30;36.90;;;;;;5035014;28;20135;-60
2022/02/12 03:33:14;;;;;;;96.20;16.15;;;21.30;36.90;;;;;;5069380;28;20119;-61
2022/02/12 03:35:41;;;;;;;112.22;19.30;;;21.10;37.00;;;;;;5035531;28;20073;-66
2022/02/12 03:38:07;;;;;;;134.10;28.23;;;21.40;37.50;;;;;;5068487;28;20168;-66
2022/02/12 03:40:35;;;;;;;106.07;33.85;;;21.70;37.60;;;;;;5068465;28;20071;-65
2022/02/12 03:43:01;;;;;;;125.82;33.35;;;21.80;37.20;;;;;;5068689;28;20446;-67
2022/02/12 03:45:28;;;;;;;98.65;24.00;;;21.90;37.00;;;;;;5069403;28;20093;-63
2022/02/12 03:47:54;;;;;;;91.30;25.85;;;22.00;36.30;;;;;;5067629;28;20509;-65
2022/02/12 03:50:21;;;;;;;112.03;22.10;;;22.10;36.60;;;;;;5068658;28;20127;-63
2022/02/12 03:52:49;;;;;;;100.00;19.55;;;22.00;36.70;;;;;;5068647;28;20143;-63
2022/02/12 03:55:17;;;;;;;105.72;18.58;;;22.00;35.90;;;;;;5069924;28;20092;-64
2022/02/12 03:57:44;;;;;;;118.57;18.05;;;22.00;35.90;;;;;;5070338;28;20073;-62
2022/02/12 04:00:12;;;;;;;104.82;19.52;;;22.00;35.70;;;;;;5051600;28;20555;-61
2022/02/12 04:02:40;;;;;;;98.05;19.20;;;21.90;36.00;;;;;;5069859;28;20069;-63
2022/02/12 04:05:07;;;;;;;118.22;19.63;;;21.90;36.00;;;;;;5068473;28;20076;-62
2022/02/12 04:07:37;;;;;;;86.03;19.02;;;21.90;36.40;;;;;;5068275;28;20085;-65
2022/02/12 04:10:05;;;;;;;80.50;19.05;;;21.80;35.80;;;;;;5067890;28;20150;-65
2022/02/12 04:12:31;;;;;;;124.38;42.33;;;21.70;35.60;;;;;;5067246;28;20203;-64
2022/02/12 04:14:58;;;;;;;145.77;58.72;;;21.60;35.30;;;;;;5068242;28;20069;-62
2022/02/12 04:17:24;;;;;;;207.35;95.78;;;21.60;36.10;;;;;;5068742;28;20096;-63
2022/02/12 04:19:52;;;;;;;275.85;139.75;;;21.60;36.80;;;;;;5069168;28;20142;-62
2022/02/12 04:22:18;;;;;;;277.50;136.45;;;21.50;36.70;;;;;;5068768;28;20093;-64
2022/02/12 04:24:45;;;;;;;247.75;129.85;;;21.50;37.50;;;;;;5070490;28;20077;-63
2022/02/12 04:27:11;;;;;;;242.70;112.38;;;21.40;37.50;;;;;;5070365;28;20180;-65
2022/02/12 04:29:38;;;;;;;201.98;84.32;;;21.40;37.70;;;;;;5071212;28;20535;-62
2022/02/12 04:32:05;;;;;;;171.63;73.05;;;21.30;37.80;;;;;;5069038;28;20072;-64
2022/02/12 04:34:31;;;;;;;195.98;75.35;;;21.20;37.40;;;;;;5069387;28;20077;-64
2022/02/12 04:36:57;;;;;;;180.40;70.15;;;21.20;37.90;;;;;;5068001;28;20167;-63
2022/02/12 04:39:24;;;;;;;164.70;64.57;;;21.10;37.50;;;;;;5068994;28;20095;-61
2022/02/12 04:41:50;;;;;;;192.45;61.28;;;21.00;37.50;;;;;;5069327;28;20080;-64
2022/02/12 04:44:16;;;;;;;159.80;54.17;;;21.00;38.00;;;;;;5070552;28;20105;-64
2022/02/12 04:46:43;;;;;;;179.98;48.63;;;20.90;37.40;;;;;;5070319;28;20550;-63
2022/02/12 04:49:09;;;;;;;153.40;42.90;;;20.90;37.60;;;;;;5068912;28;20085;-62
2022/02/12 04:51:36;;;;;;;150.90;36.25;;;20.80;38.00;;;;;;5069027;28;20077;-64
2022/02/12 04:54:02;;;;;;;132.38;36.90;;;20.70;37.60;;;;;;5067279;28;20073;-65
2022/02/12 04:56:29;;;;;;;148.55;34.28;;;20.70;38.30;;;;;;5067738;28;20088;-62
2022/02/12 04:58:55;;;;;;;165.05;34.25;;;20.70;38.80;;;;;;5069659;28;20080;-64
2022/02/12 05:01:23;;;;;;;123.03;27.92;;;20.70;39.20;;;;;;5054330;28;20075;-64
2022/02/12 05:03:53;;;;;;;141.50;28.67;;;20.50;38.30;;;;;;5051996;28;20069;-62
2022/02/12 05:06:20;;;;;;;135.65;26.90;;;20.50;38.90;;;;;;5069543;28;20077;-62
2022/02/12 05:08:47;;;;;;;144.05;30.70;;;20.50;38.30;;;;;;5052573;28;20093;-61
2022/02/12 05:11:14;;;;;;;141.98;30.42;;;20.40;39.10;;;;;;5070243;28;20546;-62
2022/02/12 05:13:41;;;;;;;141.20;28.67;;;20.40;38.80;;;;;;5071037;28;20684;-66
2022/02/12 05:16:08;;;;;;;130.73;30.13;;;20.40;39.10;;;;;;5071883;28;20168;-61
2022/02/12 05:18:34;;;;;;;140.35;29.90;;;20.30;38.60;;;;;;5072465;28;20112;-63
2022/02/12 05:21:01;;;;;;;145.77;30.95;;;20.30;39.30;;;;;;5072785;28;20069;-64
2022/02/12 05:23:27;;;;;;;125.85;29.50;;;20.30;39.40;;;;;;5072829;28;20172;-62
2022/02/12 05:25:54;;;;;;;137.60;29.15;;;20.20;39.20;;;;;;5072470;28;20192;-66
2022/02/12 05:28:20;;;;;;;;;;;20.20;39.70;;;;;;5073693;28;20093;-64
2022/02/12 05:30:46;;;;;;;151.65;32.03;;;20.10;39.50;;;;;;5072547;28;19964;-62
2022/02/12 05:33:12;;;;;;;125.80;33.95;;;20.10;39.50;;;;;;5072880;28;20087;-62
2022/02/12 05:35:39;;;;;;;180.68;37.22;;;20.00;39.60;;;;;;5073383;28;20430;-64
2022/02/12 05:38:06;;;;;;;128.65;34.13;;;19.90;39.90;;;;;;5072765;28;20543;-66
2022/02/12 05:40:32;;;;;;;153.80;34.63;;;19.90;39.70;;;;;;5072252;28;20154;-63
2022/02/12 05:43:00;;;;;;;;;;;19.80;39.60;;;;;;5073951;28;20081;-63
2022/02/12 05:45:26;;;;;;;130.32;35.47;;;19.80;40.30;;;;;;5072304;28;20071;-62
2022/02/12 05:47:53;;;;;;;144.73;36.78;;;19.80;40.20;;;;;;5073252;28;20120;-66
2022/02/12 05:50:19;;;;;;;154.30;38.90;;;19.80;40.20;;;;;;5073072;28;20566;-63
2022/02/12 05:52:46;;;;;;;132.25;36.17;;;19.70;39.70;;;;;;5071255;28;20077;-65
2022/02/12 05:55:12;;;;;;;;;;;19.70;39.40;;;;;;5073480;28;20161;-63
2022/02/12 05:57:38;;;;;;;158.57;41.50;;;19.60;39.10;;;;;;5071360;28;19996;-61
2022/02/12 06:00:05;;;;;;;145.52;38.17;;;19.60;39.80;;;;;;5071703;28;20154;-63
2022/02/12 06:02:32;;;;;;;140.70;37.95;;;19.60;39.80;;;;;;5070286;28;20092;-62
2022/02/12 06:04:58;;;;;;;132.73;36.75;;;19.50;38.10;;;;;;5070483;28;20122;-63
2022/02/12 06:07:24;;;;;;;;;;;19.50;37.50;;;;;;5073035;28;20089;-66
2022/02/12 06:09:51;;;;;;;107.63;30.17;;;19.50;37.10;;;;;;5072601;28;19957;-60
2022/02/12 06:12:17;;;;;;;101.18;28.63;;;19.60;36.60;;;;;;5071772;28;20069;-63
2022/02/12 06:14:43;;;;;;;;;;;19.60;36.10;;;;;;5071676;28;20081;-65
2022/02/12 06:17:09;;;;;;;87.82;22.98;;;19.60;34.20;;;;;;5071080;28;20094;-65
2022/02/12 06:19:36;;;;;;;81.15;20.60;;;19.70;33.60;;;;;;5070882;28;20136;-63
2022/02/12 06:22:03;;;;;;;60.45;20.10;;;19.70;33.30;;;;;;5071346;28;20080;-63
2022/02/12 06:24:29;;;;;;;64.53;20.67;;;19.70;33.30;;;;;;5070652;28;20069;-64
2022/02/12 06:26:57;;;;;;;78.30;19.92;;;19.70;34.60;;;;;;5070280;28;20794;-68
2022/02/12 06:29:25;;;;;;;71.78;18.15;;;19.70;33.70;;;;;;5071292;28;20069;-62
2022/02/12 06:31:51;;;;;;;68.57;17.95;;;19.60;33.10;;;;;;5071332;28;20073;-63
2022/02/12 06:34:18;;;;;;;72.88;17.50;;;19.60;33.10;;;;;;5071915;28;20214;-62
2022/02/12 06:36:44;;;;;;;68.07;17.15;;;19.50;33.60;;;;;;5070470;28;20485;-65
2022/02/12 06:39:11;;;;;;;63.13;19.52;;;19.50;34.00;;;;;;5070073;28;20167;-61
2022/02/12 06:41:40;;;;;;;52.50;16.65;;;19.40;33.00;;;;;;5070399;28;20069;-63
2022/02/12 06:44:08;;;;;;;51.42;13.57;;;19.40;31.90;;;;;;5069734;28;20070;-62
2022/02/12 06:46:34;;;;;;;40.80;13.57;;;19.40;30.70;;;;;;5071306;28;20119;-66
2022/02/12 06:49:01;;;;;;;35.63;12.80;;;19.50;30.30;;;;;;5070174;28;20073;-62
2022/02/12 06:51:27;;;;;;;37.95;12.27;;;19.50;30.10;;;;;;5070005;28;20092;-62
2022/02/12 06:53:53;;;;;;;;;;;19.50;30.40;;;;;;5072168;28;20433;-61
2022/02/12 06:56:19;;;;;;;27.63;9.20;;;19.50;29.40;;;;;;5069413;28;19957;-60
2022/02/12 06:58:46;;;;;;;21.33;8.95;;;19.60;28.50;;;;;;5070701;28;20073;-63
2022/02/12 07:01:12;;;;;;;25.65;7.38;;;19.60;28.40;;;;;;5069482;28;20077;-63
2022/02/12 07:03:39;;;;;;;22.83;6.32;;;19.70;28.30;;;;;;5070810;28;20138;-64
2022/02/12 07:06:05;;;;;;;21.33;5.55;;;19.70;28.60;;;;;;5069650;28;20176;-63
2022/02/12 07:08:32;;;;;;;17.95;4.40;;;19.70;28.30;;;;;;5052758;28;20089;-58
2022/02/12 07:10:58;;;;;;;;;;;19.70;28.60;;;;;;5070558;28;20085;-60
2022/02/12 07:13:24;;;;;;;34.80;14.80;;;19.60;28.50;;;;;;5069263;28;19957;-65
2022/02/12 07:15:50;;;;;;;33.65;13.55;;;19.50;28.90;;;;;;5068543;28;20156;-67
2022/02/12 07:18:17;;;;;;;29.00;10.73;;;19.50;29.50;;;;;;5069107;28;20116;-64
2022/02/12 07:20:43;;;;;;;23.55;9.73;;;19.40;29.80;;;;;;5068954;28;20160;-67
2022/02/12 07:23:09;;;;;;;;;;;19.40;30.00;;;;;;5070009;28;20126;-61
2022/02/12 07:25:36;;;;;;;22.98;6.22;;;19.30;29.80;;;;;;5069389;28;19957;-63
2022/02/12 07:28:02;;;;;;;27.52;5.57;;;19.20;29.60;;;;;;5052851;28;20543;-62
2022/02/12 07:30:29;;;;;;;18.52;5.70;;;19.20;28.90;;;;;;5069849;28;20093;-64
2022/02/12 07:32:56;;;;;;;38.22;19.15;;;19.20;29.10;;;;;;5070510;28;20065;-65
2022/02/12 07:35:22;;;;;;;52.58;25.50;;;19.20;29.90;;;;;;5068031;28;20542;-60
2022/02/12 07:37:49;;;;;;;78.40;35.08;;;19.10;30.40;;;;;;5052058;28;20085;-64
2022/02/12 07:40:17;;;;;;;67.15;36.00;;;19.10;30.60;;;;;;5068890;28;20546;-64
2022/02/12 07:42:46;;;;;;;55.53;31.95;;;18.90;30.50;;;;;;5052224;28;20077;-64
2022/02/12 07:45:13;;;;;;;58.78;24.75;;;18.90;31.20;;;;;;5069187;28;20480;-60
2022/02/12 07:47:41;;;;;;;64.75;30.88;;;18.80;31.10;;;;;;5070732;28;20081;-66
2022/02/12 07:50:09;;;;;;;60.28;20.55;;;18.70;31.20;;;;;;5068653;28;20654;-62
2022/02/12 07:52:36;;;;;;;38.17;11.05;;;18.60;30.10;;;;;;5069421;28;20176;-63
2022/02/12 07:55:04;;;;;;;41.67;15.88;;;18.60;29.70;;;;;;5069036;28;20072;-62
2022/02/12 07:57:30;;;;;;;75.68;35.75;;;18.60;30.00;;;;;;5068659;28;20074;-59
2022/02/12 07:59:56;;;;;;;;;;;18.60;30.40;;;;;;5069923;28;20069;-61
2022/02/12 08:02:23;;;;;;;57.28;24.63;;;18.60;30.70;;;;;;5068443;28;19963;-63
2022/02/12 08:04:49;;;;;;;;;;;18.50;31.70;;;;;;5069055;28;20085;-60
2022/02/12 08:07:31;;;;;;;45.63;16.25;;;18.50;31.60;;;;;;5068561;28;19973;-62
2022/02/12 08:11:22;;;;;;;25.08;9.65;;;18.40;31.20;;;;;;5068023;28;20093;-62
2022/02/12 08:12:53;;;;;;;28.75;7.45;;;18.30;29.40;;;;;;5054590;28;20088;-60
2022/02/12 08:15:19;;;;;;;25.38;8.82;;;18.40;28.70;;;;;;5070076;28;20068;-62
2022/02/12 08:17:46;;;;;;;34.42;9.63;;;18.50;29.30;;;;;;5066849;28;20104;-61
2022/02/12 08:20:12;;;;;;;24.42;9.18;;;18.40;29.10;;;;;;5067671;28;20172;-62
2022/02/12 08:22:39;;;;;;;18.70;7.35;;;18.40;29.10;;;;;;5067207;28;20073;-64
2022/02/12 08:25:06;;;;;;;17.23;7.75;;;18.40;29.20;;;;;;5069339;28;20103;-61
2022/02/12 08:27:33;;;;;;;14.90;6.45;;;18.40;28.60;;;;;;5068098;28;20089;-63
2022/02/12 08:30:00;;;;;;;22.38;6.85;;;18.40;28.60;;;;;;5070525;28;20068;-62
2022/02/12 08:32:27;;;;;;;15.02;6.90;;;18.40;28.60;;;;;;5067562;28;20085;-63
2022/02/12 08:34:54;;;;;;;20.25;5.65;;;18.40;28.10;;;;;;5068060;28;20218;-66
2022/02/12 08:37:21;;;;;;;18.80;5.18;;;18.40;28.50;;;;;;5068936;28;20069;-61
2022/02/12 08:39:49;;;;;;;12.98;4.55;;;18.40;28.80;;;;;;5066829;28;20088;-63
2022/02/12 08:42:20;;;;;;;12.70;4.88;;;18.30;28.30;;;;;;5067000;28;20554;-61
2022/02/12 08:44:47;;;;;;;16.58;4.78;;;18.30;28.00;;;;;;5065577;28;20073;-61
2022/02/12 08:47:14;;;;;;;14.77;4.13;;;18.30;27.80;;;;;;5066630;28;20089;-68
2022/02/12 08:49:41;;;;;;;13.23;4.05;;;18.40;27.30;;;;;;5065984;28;20073;-61
2022/02/12 08:52:08;;;;;;;16.75;4.78;;;18.40;27.30;;;;;;5067457;28;20072;-61
2022/02/12 08:54:34;;;;;;;12.60;4.00;;;18.40;27.20;;;;;;5067711;28;20073;-63
2022/02/12 08:57:04;;;;;;;14.10;4.57;;;18.50;27.20;;;;;;5066491;28;20438;-63
2022/02/12 08:59:30;;;;;;;12.07;3.83;;;18.50;27.50;;;;;;5068036;28;20077;-64
2022/02/12 09:01:58;;;;;;;16.10;4.72;;;18.40;28.00;;;;;;5067343;28;20168;-61
2022/02/12 09:04:24;;;;;;;13.85;4.00;;;18.40;28.10;;;;;;5050792;28;20069;-63
2022/02/12 09:06:51;;;;;;;17.05;4.07;;;18.30;28.40;;;;;;5068856;28;20103;-62
2022/02/12 09:09:18;;;;;;;13.07;4.22;;;18.20;28.40;;;;;;5067175;28;20438;-63
2022/02/12 09:11:45;;;;;;;16.10;3.85;;;18.10;29.00;;;;;;5066756;28;20085;-65
2022/02/12 09:14:12;;;;;;;14.93;3.50;;;18.00;29.00;;;;;;5067359;28;20523;-65
2022/02/12 09:16:40;;;;;;;10.15;3.80;;;18.00;29.10;;;;;;5066912;28;20073;-61
2022/02/12 09:19:07;;;;;;;16.13;4.07;;;17.90;29.10;;;;;;5050214;28;20166;-60
2022/02/12 09:21:34;;;;;;;9.70;3.25;;;17.90;29.40;;;;;;5066664;28;20168;-64
2022/02/12 09:24:01;;;;;;;14.20;4.05;;;17.90;30.00;;;;;;5066977;28;20567;-62
2022/02/12 09:26:32;;;;;;;14.95;3.70;;;17.80;30.40;;;;;;5066748;28;20169;-63
2022/02/12 09:28:59;;;;;;;12.75;3.55;;;17.80;30.80;;;;;;5067349;28;20600;-63
2022/02/12 09:31:26;;;;;;;12.23;3.33;;;17.70;31.60;;;;;;5049758;28;20073;-62
2022/02/12 09:33:53;;;;;;;10.82;3.20;;;17.60;31.90;;;;;;5050439;28;20080;-59
2022/02/12 09:36:20;;;;;;;12.23;3.45;;;17.60;32.00;;;;;;5065400;28;20100;-65
2022/02/12 09:38:47;;;;;;;10.93;3.53;;;17.50;32.00;;;;;;5066822;28;20482;-60
2022/02/12 09:41:14;;;;;;;12.52;3.63;;;17.40;31.80;;;;;;5067150;28;20113;-63
2022/02/12 09:43:43;;;;;;;13.70;3.47;;;17.30;31.80;;;;;;5067029;28;20077;-65
2022/02/12 09:46:24;;;;;;;12.98;3.00;;;17.30;32.20;;;;;;5066039;28;20200;-64
2022/02/12 09:48:51;;;;;;;16.88;3.53;;;17.20;32.10;;;;;;5066613;28;20087;-61
2022/02/12 09:51:18;;;;;;;12.68;3.40;;;17.00;32.00;;;;;;5063963;28;20081;-62
2022/02/12 09:53:44;;;;;;;9.38;3.22;;;17.00;31.70;;;;;;5066601;28;20539;-60
2022/02/12 09:56:11;;;;;;;16.48;4.43;;;17.00;31.70;;;;;;5066866;28;20168;-62
2022/02/12 09:58:37;;;;;;;11.40;3.90;;;17.00;32.30;;;;;;5066654;28;20073;-60
2022/02/12 10:01:03;;;;;;;;;;;17.00;32.30;;;;;;5072003;28;20218;-62
2022/02/12 10:03:30;;;;;;;12.60;2.83;;;17.00;32.40;;;;;;5070576;28;20044;-61
2022/02/12 10:05:56;;;;;;;13.48;2.88;;;16.90;32.20;;;;;;5054171;28;20081;-63
2022/02/12 10:08:23;;;;;;;;;;;16.90;32.40;;;;;;5070550;28;20104;-63
2022/02/12 10:10:52;;;;;;;10.45;2.90;;;16.90;32.20;;;;;;5070566;28;19973;-57
2022/02/12 10:13:20;;;;;;;17.98;3.70;;;16.90;32.60;;;;;;5070939;28;20065;-60
2022/02/12 10:15:48;;;;;;;18.80;4.13;;;16.80;32.40;;;;;;5070327;28;20069;-60
2022/02/12 10:18:17;;;;;;;22.40;4.70;;;16.80;32.30;;;;;;5071577;28;20200;-62
2022/02/12 10:20:44;;;;;;;25.63;5.05;;;16.70;32.30;;;;;;5069741;28;20620;-62
2022/02/12 10:23:16;;;;;;;23.60;6.43;;;16.80;32.40;;;;;;5070210;28;20087;-63
2022/02/12 10:26:06;;;;;;;28.92;6.45;;;16.70;32.20;;;;;;5067850;28;20097;-64
2022/02/12 10:28:45;;;;;;;25.65;6.85;;;16.70;32.50;;;;;;5051563;28;20085;-59
2022/02/12 10:31:13;;;;;;;23.83;7.40;;;16.70;32.70;;;;;;5067943;28;20077;-55
2022/02/12 10:33:47;;;;;;;27.50;6.32;;;16.70;33.00;;;;;;5069891;28;20066;-61
2022/02/12 10:36:16;;;;;;;21.65;5.15;;;16.70;33.80;;;;;;5069883;28;20122;-60
2022/02/12 10:38:54;;;;;;;12.77;4.88;;;16.70;34.50;;;;;;5069466;28;20069;-62
2022/02/12 10:41:22;;;;;;;21.95;4.55;;;16.60;35.00;;;;;;5068914;28;20094;-62
2022/02/12 10:43:54;;;;;;;22.08;4.43;;;16.60;35.20;;;;;;5070010;28;20135;-60
2022/02/12 10:46:22;;;;;;;19.45;4.22;;;16.50;34.20;;;;;;5053151;28;20077;-62
2022/02/12 10:48:51;;;;;;;12.15;3.80;;;16.50;35.50;;;;;;5071630;28;20120;-61
2022/02/12 10:51:19;;;;;;;18.25;3.40;;;16.50;35.20;;;;;;5070298;28;20122;-61
2022/02/12 10:54:02;;;;;;;17.42;3.65;;;16.40;35.00;;;;;;5069509;28;20073;-60
2022/02/12 10:56:47;;;;;;;12.95;3.22;;;16.40;35.30;;;;;;5070639;28;20065;-61
2022/02/12 10:59:19;;;;;;;13.75;3.10;;;16.40;35.40;;;;;;5068926;28;20100;-63
2022/02/12 11:01:47;;;;;;;11.10;3.00;;;16.30;35.20;;;;;;5070002;28;20100;-60
2022/02/12 11:04:17;;;;;;;13.90;3.33;;;16.20;35.00;;;;;;5051347;28;20101;-65
2022/02/12 11:06:48;;;;;;;14.00;3.40;;;16.20;34.40;;;;;;5069403;28;20131;-62
2022/02/12 11:09:17;;;;;;;21.77;3.47;;;16.20;34.20;;;;;;5070816;28;20477;-61
2022/02/12 11:11:44;;;;;;;6.03;2.78;;;16.20;35.30;;;;;;5069517;28;20089;-61
2022/02/12 11:14:13;;;;;;;10.10;3.05;;;16.20;35.70;;;;;;5052131;28;20147;-63
2022/02/12 11:16:40;;;;;;;12.77;2.70;;;16.10;35.40;;;;;;5069015;28;20419;-61
2022/02/12 11:19:07;;;;;;;6.90;2.10;;;16.00;34.80;;;;;;5051716;28;20112;-61
2022/02/12 11:21:38;;;;;;;8.93;2.35;;;16.10;34.00;;;;;;5035516;28;20084;-62
2022/02/12 11:24:14;;;;;;;9.52;2.15;;;16.10;34.80;;;;;;5068600;28;20073;-62
2022/02/12 11:26:41;;;;;;;14.52;2.38;;;16.10;35.60;;;;;;5070305;28;20073;-62
2022/02/12 11:29:44;;;;;;;9.10;2.08;;;16.00;35.80;;;;;;5069865;28;20543;-63
2022/02/12 11:32:41;;;;;;;8.23;2.47;;;15.90;35.60;;;;;;5067073;28;20156;-63
2022/02/12 11:35:10;;;;;;;9.27;1.70;;;15.90;35.80;;;;;;5067741;28;20084;-61
2022/02/12 11:37:49;;;;;;;9.65;2.20;;;15.80;35.60;;;;;;5069171;28;20088;-62
2022/02/12 11:40:24;;;;;;;14.00;4.18;;;15.80;35.60;;;;;;5053066;28;20077;-61
2022/02/12 11:42:58;;;;;;;25.40;5.93;;;15.80;35.60;;;;;;5068061;28;21020;-63
2022/02/12 11:45:47;;;;;;;18.30;4.13;;;15.80;35.80;;;;;;5051840;28;20104;-65
2022/02/12 11:48:31;;;;;;;23.10;4.65;;;15.80;37.10;;;;;;5050970;28;20606;-64
2022/02/12 11:51:12;;;;;;;25.38;3.47;;;15.80;36.60;;;;;;5068735;28;20093;-63
2022/02/12 11:53:46;;;;;;;18.80;3.08;;;15.60;37.30;;;;;;5068618;28;20073;-61
2022/02/12 11:56:18;;;;;;;17.02;3.80;;;15.60;37.60;;;;;;5069525;28;20081;-60
2022/02/12 11:58:47;;;;;;;16.65;3.10;;;15.60;37.40;;;;;;5066869;28;20087;-62
2022/02/12 12:01:27;;;;;;;21.92;2.78;;;15.50;37.80;;;;;;5068650;28;20100;-63
2022/02/12 12:04:22;;;;;;;11.02;2.53;;;15.50;37.90;;;;;;5068571;28;20104;-60
2022/02/12 12:07:10;;;;;;;12.25;3.03;;;15.40;36.70;;;;;;5067686;28;20461;-61
2022/02/12 12:09:39;;;;;;;14.32;3.13;;;15.40;36.20;;;;;;5068139;28;20935;-64
2022/02/12 12:12:16;;;;;;;12.82;3.38;;;15.40;36.20;;;;;;5068300;28;20548;-61
2022/02/12 12:14:43;;;;;;;16.48;2.67;;;15.40;36.50;;;;;;5067967;28;20092;-62
2022/02/12 12:17:10;;;;;;;13.27;2.63;;;15.40;35.90;;;;;;5069649;28;20855;-59
2022/02/12 12:19:39;;;;;;;10.43;3.00;;;15.40;35.70;;;;;;5067715;28;20108;-60
2022/02/12 12:22:09;;;;;;;14.65;2.85;;;15.40;36.20;;;;;;5067448;28;20076;-63
2022/02/12 12:24:37;;;;;;;9.35;2.97;;;15.40;36.30;;;;;;5066618;28;20118;-62
2022/02/12 12:27:05;;;;;;;13.13;2.40;;;15.40;36.70;;;;;;5069981;28;20118;-62
2022/02/12 12:32:19;;;;;;;21.05;3.80;;;15.30;36.80;;;;;;5068350;28;20111;-63
2022/02/12 12:35:03;;;;;;;22.05;3.05;;;15.30;36.50;;;;;;5068235;28;20131;-62
2022/02/12 12:37:50;;;;;;;13.38;2.53;;;15.20;36.30;;;;;;5069382;28;20073;-62
2022/02/12 12:40:17;;;;;;;14.27;2.43;;;15.20;37.20;;;;;;5067569;28;20116;-60
2022/02/12 12:42:43;;;;;;;14.10;2.65;;;15.00;36.50;;;;;;5067466;28;20302;-57
2022/02/12 12:45:11;;;;;;;15.65;3.28;;;15.00;37.10;;;;;;5069386;28;20081;-61
2022/02/12 12:47:49;;;;;;;12.68;2.80;;;15.00;37.70;;;;;;5069341;28;20142;-59
2022/02/12 12:50:16;;;;;;;14.02;3.13;;;14.90;37.30;;;;;;5067343;28;20077;-61